Time;durP1;ratioP1;P1;durP2;ratioP2;P2;SDS_P1;SDS_P2;PMS_P1;PMS_P2;Temp;Humidity;BMP_temperature;BMP_pressure;BME280_temperature;BME280_humidity;BME280_pressure;Samples;Min_cycle;Max_cycle;Signal;HPM_P1;HPM_P2
2023/03/10 00:00:04;;;;;;;36.90;21.20;;;;;;;;;;6299437;28;20060;-74
2023/03/10 00:03:07;;;;;;;39.58;21.98;;;;;;;;;;6301818;28;20050;-74
2023/03/10 00:06:09;;;;;;;39.90;23.27;;;;;;;;;;6300915;28;20198;-71
2023/03/10 00:09:12;;;;;;;39.60;23.38;;;;;;;;;;6303239;28;20052;-73
2023/03/10 00:12:14;;;;;;;41.05;23.50;;;;;;;;;;6302751;28;20053;-73
2023/03/10 00:15:16;;;;;;;38.08;22.80;;;;;;;;;;6302774;28;20041;-73
2023/03/10 00:18:17;;;;;;;39.60;22.80;;;;;;;;;;6300787;28;20090;-73
2023/03/10 00:21:21;;;;;;;37.42;21.63;;;;;;;;;;6302204;28;20048;-73
2023/03/10 00:24:24;;;;;;;;;;;;;;;;;;6301643;28;20059;-73
2023/03/10 00:27:26;;;;;;;39.58;22.65;;;;;;;;;;6299960;28;19947;-67
2023/03/10 00:30:28;;;;;;;41.20;23.20;;;;;;;;;;6301304;28;20056;-72
2023/03/10 00:33:30;;;;;;;38.08;20.30;;;;;;;;;;6300596;28;20116;-73
2023/03/10 00:36:32;;;;;;;37.22;23.00;;;;;;;;;;6301527;28;20052;-73
2023/03/10 00:39:35;;;;;;;36.85;21.92;;;;;;;;;;6302069;28;20056;-66
2023/03/10 00:42:37;;;;;;;42.77;24.70;;;;;;;;;;6300669;28;20053;-73
2023/03/10 00:45:39;;;;;;;42.13;23.90;;;;;;;;;;6301917;28;20059;-74
2023/03/10 00:48:41;;;;;;;42.38;25.52;;;;;;;;;;6299612;28;20045;-72
2023/03/10 00:51:42;;;;;;;44.28;25.13;;;;;;;;;;6301123;28;20064;-67
2023/03/10 00:54:45;;;;;;;43.88;24.38;;;;;;;;;;6299076;28;20107;-73
2023/03/10 00:57:48;;;;;;;41.67;24.98;;;;;;;;;;6300488;28;20059;-72
2023/03/10 01:00:49;;;;;;;42.00;25.20;;;;;;;;;;6299418;28;20068;-73
2023/03/10 01:03:52;;;;;;;41.72;24.88;;;;;;;;;;6299789;28;20094;-73
2023/03/10 01:06:53;;;;;;;42.35;25.58;;;;;;;;;;6300820;28;20611;-73
2023/03/10 01:09:56;;;;;;;41.22;25.27;;;;;;;;;;6300321;28;20352;-74
2023/03/10 01:12:58;;;;;;;45.83;24.98;;;;;;;;;;6300545;28;20080;-73
2023/03/10 01:16:00;;;;;;;40.95;24.73;;;;;;;;;;6300667;28;20241;-72
2023/03/10 01:19:01;;;;;;;43.45;25.90;;;;;;;;;;6301341;28;20052;-73
2023/03/10 01:22:05;;;;;;;38.05;24.90;;;;;;;;;;6297228;28;20052;-73
2023/03/10 01:25:13;;;;;;;39.95;24.80;;;;;;;;;;6298459;28;20048;-73
2023/03/10 01:28:15;;;;;;;40.40;25.10;;;;;;;;;;6305184;28;20040;-72
2023/03/10 01:31:18;;;;;;;42.20;24.48;;;;;;;;;;6300200;28;20182;-65
2023/03/10 01:34:20;;;;;;;40.80;23.70;;;;;;;;;;6303024;28;20052;-69
2023/03/10 01:37:21;;;;;;;42.55;24.25;;;;;;;;;;6300445;28;20052;-73
2023/03/10 01:40:25;;;;;;;40.28;22.98;;;;;;;;;;6300497;28;20056;-69
2023/03/10 01:43:32;;;;;;;42.08;23.42;;;;;;;;;;6299308;28;20115;-72
2023/03/10 01:46:43;;;;;;;39.47;21.65;;;;;;;;;;6294890;28;20058;-69
2023/03/10 01:49:45;;;;;;;39.42;22.95;;;;;;;;;;6299789;28;20056;-71
2023/03/10 01:52:55;;;;;;;39.03;22.52;;;;;;;;;;6298235;28;20056;-72
2023/03/10 01:56:01;;;;;;;43.05;21.60;;;;;;;;;;6299745;28;20382;-67
2023/03/10 01:59:03;;;;;;;38.10;23.25;;;;;;;;;;6296915;28;20152;-71
2023/03/10 02:02:04;;;;;;;33.83;20.95;;;;;;;;;;6297778;28;20052;-67
2023/03/10 02:05:07;;;;;;;37.95;22.35;;;;;;;;;;6298466;28;20052;-74
2023/03/10 02:08:09;;;;;;;44.38;22.67;;;;;;;;;;6299490;28;20113;-74
2023/03/10 02:11:13;;;;;;;36.72;21.33;;;;;;;;;;6298448;28;20060;-71
2023/03/10 02:14:15;;;;;;;35.13;21.10;;;;;;;;;;6297170;28;20060;-73
2023/03/10 02:17:18;;;;;;;35.45;21.33;;;;;;;;;;6297177;28;20259;-73
2023/03/10 02:20:28;;;;;;;37.77;21.50;;;;;;;;;;6300020;28;20050;-73
2023/03/10 02:23:34;;;;;;;39.40;19.75;;;;;;;;;;6303431;28;20315;-72
2023/03/10 02:26:43;;;;;;;35.90;20.77;;;;;;;;;;6301169;28;20127;-69
2023/03/10 02:29:49;;;;;;;36.20;19.90;;;;;;;;;;6299713;28;20321;-73
2023/03/10 02:32:54;;;;;;;32.53;19.45;;;;;;;;;;6299325;28;20050;-72
2023/03/10 02:36:02;;;;;;;34.83;21.20;;;;;;;;;;6297384;28;20048;-70
2023/03/10 02:39:04;;;;;;;35.75;21.23;;;;;;;;;;6300051;28;20252;-73
2023/03/10 02:42:06;;;;;;;36.40;20.30;;;;;;;;;;6297655;28;20060;-72
2023/03/10 02:45:10;;;;;;;40.45;22.90;;;;;;;;;;6302779;28;20117;-72
2023/03/10 02:48:13;;;;;;;36.28;20.30;;;;;;;;;;6297357;28;20052;-72
2023/03/10 02:51:19;;;;;;;36.47;20.88;;;;;;;;;;6295375;28;20048;-74
2023/03/10 02:54:20;;;;;;;;;;;;;;;;;;6298849;28;20056;-71
2023/03/10 02:57:22;;;;;;;41.28;28.33;;;;;;;;;;6299714;28;24460;-69
2023/03/10 03:00:25;;;;;;;42.13;25.52;;;;;;;;;;6298295;28;20037;-73
2023/03/10 03:03:26;;;;;;;37.30;24.77;;;;;;;;;;6298237;28;20082;-73
2023/03/10 03:06:29;;;;;;;38.58;25.05;;;;;;;;;;6298992;28;20044;-70
2023/03/10 03:09:31;;;;;;;39.22;25.25;;;;;;;;;;6298718;28;20048;-72
2023/03/10 03:12:33;;;;;;;41.10;25.67;;;;;;;;;;6297403;28;20056;-73
2023/03/10 03:15:36;;;;;;;43.08;25.63;;;;;;;;;;6297988;28;20048;-74
2023/03/10 03:18:38;;;;;;;40.00;24.48;;;;;;;;;;6297236;28;20044;-73
2023/03/10 03:21:39;;;;;;;36.60;24.38;;;;;;;;;;6301832;28;20072;-73
2023/03/10 03:24:41;;;;;;;39.88;24.48;;;;;;;;;;6304173;28;20159;-73
2023/03/10 03:27:43;;;;;;;40.35;25.42;;;;;;;;;;6306599;28;20070;-67
2023/03/10 03:30:46;;;;;;;43.85;25.73;;;;;;;;;;6305649;28;20056;-72
2023/03/10 03:33:48;;;;;;;40.63;25.95;;;;;;;;;;6307748;28;20044;-72
2023/03/10 03:36:50;;;;;;;43.17;25.33;;;;;;;;;;6305498;28;20067;-73
2023/03/10 03:39:53;;;;;;;39.20;24.35;;;;;;;;;;6303114;28;20477;-68
2023/03/10 03:42:54;;;;;;;38.38;25.80;;;;;;;;;;6308346;28;20332;-69
2023/03/10 03:45:57;;;;;;;39.30;24.55;;;;;;;;;;6307218;28;20386;-73
2023/03/10 03:49:00;;;;;;;42.78;24.85;;;;;;;;;;6303259;28;21008;-73
2023/03/10 03:52:01;;;;;;;39.10;24.42;;;;;;;;;;6307403;28;20056;-73
2023/03/10 03:55:04;;;;;;;41.53;25.92;;;;;;;;;;6304128;28;20052;-67
2023/03/10 03:58:05;;;;;;;40.50;25.58;;;;;;;;;;6307820;28;20118;-73
2023/03/10 04:01:09;;;;;;;39.25;23.80;;;;;;;;;;6307985;28;20044;-73
2023/03/10 04:04:11;;;;;;;44.65;24.73;;;;;;;;;;6305058;28;20060;-71
2023/03/10 04:07:13;;;;;;;38.50;23.90;;;;;;;;;;6305665;28;21037;-73
2023/03/10 04:10:17;;;;;;;45.35;25.10;;;;;;;;;;6304462;28;20368;-73
2023/03/10 04:13:18;;;;;;;40.00;25.30;;;;;;;;;;6306228;28;20041;-71
2023/03/10 04:16:21;;;;;;;40.78;26.23;;;;;;;;;;6309682;28;21429;-71
2023/03/10 04:19:23;;;;;;;42.70;24.90;;;;;;;;;;6304796;28;20272;-70
2023/03/10 04:22:25;;;;;;;38.95;24.27;;;;;;;;;;6302261;28;20053;-73
2023/03/10 04:25:27;;;;;;;41.42;24.75;;;;;;;;;;6304463;28;20383;-73
2023/03/10 04:28:29;;;;;;;38.28;23.83;;;;;;;;;;6302547;28;20120;-72
2023/03/10 04:31:32;;;;;;;40.00;25.92;;;;;;;;;;6304278;28;20070;-70
2023/03/10 04:34:34;;;;;;;39.15;25.17;;;;;;;;;;6303493;28;20214;-72
2023/03/10 04:37:35;;;;;;;40.17;24.58;;;;;;;;;;6301340;28;20051;-67
2023/03/10 04:40:37;;;;;;;45.03;25.83;;;;;;;;;;6300767;28;20053;-68
2023/03/10 04:43:39;;;;;;;42.92;25.98;;;;;;;;;;6300815;28;20078;-73
2023/03/10 04:46:42;;;;;;;40.50;24.60;;;;;;;;;;6299888;28;20049;-73
2023/03/10 04:49:43;;;;;;;43.70;26.15;;;;;;;;;;6300438;28;20056;-73
2023/03/10 04:52:45;;;;;;;38.72;25.33;;;;;;;;;;6299762;28;20060;-73
2023/03/10 04:55:46;;;;;;;43.13;25.67;;;;;;;;;;6301390;28;20060;-73
2023/03/10 04:58:48;;;;;;;43.38;25.83;;;;;;;;;;6300533;28;20048;-71
2023/03/10 05:01:52;;;;;;;41.90;25.92;;;;;;;;;;6301876;28;20048;-72
2023/03/10 05:04:54;;;;;;;41.03;25.17;;;;;;;;;;6303135;28;20052;-72
2023/03/10 05:07:55;;;;;;;41.00;26.52;;;;;;;;;;6298695;28;20056;-72
2023/03/10 05:10:57;;;;;;;37.85;25.33;;;;;;;;;;6300986;28;20056;-68
2023/03/10 05:13:59;;;;;;;41.30;25.40;;;;;;;;;;6301107;28;20056;-72
2023/03/10 05:17:02;;;;;;;43.75;26.40;;;;;;;;;;6300796;28;20056;-73
2023/03/10 05:20:06;;;;;;;42.70;25.42;;;;;;;;;;6299524;28;20052;-75
2023/03/10 05:23:08;;;;;;;42.80;25.65;;;;;;;;;;6299939;28;20059;-73
2023/03/10 05:26:11;;;;;;;45.55;25.75;;;;;;;;;;6299370;28;20060;-72
2023/03/10 05:29:12;;;;;;;40.13;24.83;;;;;;;;;;6298424;28;20055;-74
2023/03/10 05:32:15;;;;;;;38.45;23.55;;;;;;;;;;6299337;28;20052;-73
2023/03/10 05:35:17;;;;;;;40.67;23.90;;;;;;;;;;6303208;28;20052;-73
2023/03/10 05:38:19;;;;;;;42.63;24.35;;;;;;;;;;6298343;28;20052;-72
2023/03/10 05:41:20;;;;;;;44.08;24.92;;;;;;;;;;6299524;28;20048;-72
2023/03/10 05:44:22;;;;;;;38.78;24.88;;;;;;;;;;6294098;28;20098;-69
2023/03/10 05:47:25;;;;;;;39.38;24.80;;;;;;;;;;6300379;28;20341;-66
2023/03/10 05:50:27;;;;;;;43.47;24.30;;;;;;;;;;6301153;28;20052;-72
2023/03/10 05:53:29;;;;;;;42.72;25.60;;;;;;;;;;6299177;28;20233;-72
2023/03/10 05:56:31;;;;;;;43.97;25.48;;;;;;;;;;6297817;28;20053;-72
2023/03/10 05:59:32;;;;;;;42.92;25.85;;;;;;;;;;6300124;28;20802;-74
2023/03/10 06:02:36;;;;;;;42.00;24.48;;;;;;;;;;6298412;28;20064;-71
2023/03/10 06:05:37;;;;;;;42.92;25.67;;;;;;;;;;6298934;28;20056;-69
2023/03/10 06:08:39;;;;;;;47.08;26.42;;;;;;;;;;6298260;28;20094;-69
2023/03/10 06:11:41;;;;;;;41.67;25.13;;;;;;;;;;6299155;28;20114;-71
2023/03/10 06:14:42;;;;;;;49.13;25.92;;;;;;;;;;6296027;28;20052;-72
2023/03/10 06:17:45;;;;;;;40.05;25.70;;;;;;;;;;6298535;28;20052;-74
2023/03/10 06:20:48;;;;;;;44.45;26.45;;;;;;;;;;6296269;28;20044;-71
2023/03/10 06:23:49;;;;;;;45.17;26.45;;;;;;;;;;6297430;28;20076;-70
2023/03/10 06:26:51;;;;;;;41.72;26.30;;;;;;;;;;6296060;28;20082;-69
2023/03/10 06:29:52;;;;;;;45.15;26.95;;;;;;;;;;6296647;28;20094;-74
2023/03/10 06:32:55;;;;;;;42.63;26.38;;;;;;;;;;6297814;28;20048;-72
2023/03/10 06:35:58;;;;;;;44.47;26.80;;;;;;;;;;6297265;28;20048;-71
2023/03/10 06:38:59;;;;;;;44.10;26.50;;;;;;;;;;6298675;28;20059;-66
2023/03/10 06:42:01;;;;;;;51.15;27.17;;;;;;;;;;6297122;28;20098;-70
2023/03/10 06:45:03;;;;;;;41.33;25.95;;;;;;;;;;6296703;28;20116;-71
2023/03/10 06:48:06;;;;;;;46.38;27.45;;;;;;;;;;6293054;28;20063;-71
2023/03/10 06:51:10;;;;;;;46.70;26.33;;;;;;;;;;6297277;28;20274;-69
2023/03/10 06:54:11;;;;;;;44.72;26.65;;;;;;;;;;6296509;28;20064;-70
2023/03/10 06:57:13;;;;;;;46.15;27.88;;;;;;;;;;6297278;28;20056;-71
2023/03/10 07:00:16;;;;;;;43.45;27.27;;;;;;;;;;6298378;28;20049;-71
2023/03/10 07:03:19;;;;;;;49.50;28.15;;;;;;;;;;6297367;28;20053;-71
2023/03/10 07:06:21;;;;;;;45.57;26.27;;;;;;;;;;6295121;28;20053;-68
2023/03/10 07:09:22;;;;;;;47.40;26.40;;;;;;;;;;6296397;28;20048;-71
2023/03/10 07:12:24;;;;;;;40.63;26.13;;;;;;;;;;6297628;28;20287;-73
2023/03/10 07:15:26;;;;;;;47.22;26.20;;;;;;;;;;6297796;28;20106;-73
2023/03/10 07:18:29;;;;;;;44.97;25.55;;;;;;;;;;6294707;28;20052;-72
2023/03/10 07:21:31;;;;;;;41.60;25.23;;;;;;;;;;6296746;28;20259;-72
2023/03/10 07:24:33;;;;;;;42.40;26.13;;;;;;;;;;6296407;28;20048;-70
2023/03/10 07:27:34;;;;;;;57.00;26.75;;;;;;;;;;6295752;28;20122;-71
2023/03/10 07:30:37;;;;;;;47.28;27.08;;;;;;;;;;6295099;28;20052;-70
2023/03/10 07:33:40;;;;;;;45.75;26.35;;;;;;;;;;6294993;28;20060;-71
2023/03/10 07:36:42;;;;;;;37.80;25.20;;;;;;;;;;6301806;28;20317;-71
2023/03/10 07:39:43;;;;;;;42.65;25.45;;;;;;;;;;6296427;28;20067;-72
2023/03/10 07:42:45;;;;;;;46.08;25.15;;;;;;;;;;6297749;28;20272;-65
2023/03/10 07:45:47;;;;;;;44.05;25.17;;;;;;;;;;6296916;28;20067;-72
2023/03/10 07:48:51;;;;;;;41.60;23.95;;;;;;;;;;6296105;28;20063;-68
2023/03/10 07:51:53;;;;;;;45.28;24.77;;;;;;;;;;6297894;28;20048;-71
2023/03/10 07:54:54;;;;;;;44.10;23.80;;;;;;;;;;6297606;28;20310;-71
2023/03/10 07:57:59;;;;;;;40.70;23.65;;;;;;;;;;6295272;28;20340;-71
2023/03/10 08:01:01;;;;;;;43.95;24.17;;;;;;;;;;6299252;28;20055;-72
2023/03/10 08:04:05;;;;;;;36.20;22.98;;;;;;;;;;6296639;28;20068;-73
2023/03/10 08:07:06;;;;;;;41.30;24.05;;;;;;;;;;6296607;28;20079;-72
2023/03/10 08:10:09;;;;;;;39.45;22.92;;;;;;;;;;6301801;28;20052;-72
2023/03/10 08:13:11;;;;;;;35.63;22.58;;;;;;;;;;6300904;28;20060;-71
2023/03/10 08:16:13;;;;;;;38.58;22.70;;;;;;;;;;6299752;28;20121;-72
2023/03/10 08:19:16;;;;;;;36.78;22.05;;;;;;;;;;6297209;28;20365;-72
2023/03/10 08:22:18;;;;;;;46.00;24.13;;;;;;;;;;6301280;28;20055;-72
2023/03/10 08:25:20;;;;;;;39.90;23.30;;;;;;;;;;6300385;28;20094;-72
2023/03/10 08:28:21;;;;;;;35.78;23.77;;;;;;;;;;6302283;28;20061;-71
2023/03/10 08:31:23;;;;;;;36.05;22.35;;;;;;;;;;6300116;28;20056;-72
2023/03/10 08:34:26;;;;;;;33.72;21.95;;;;;;;;;;6300265;28;20119;-71
2023/03/10 08:37:28;;;;;;;32.83;21.92;;;;;;;;;;6299839;28;20051;-72
2023/03/10 08:40:30;;;;;;;33.40;21.05;;;;;;;;;;6300953;28;20356;-74
2023/03/10 08:43:31;;;;;;;33.10;21.40;;;;;;;;;;6299373;28;20260;-72
2023/03/10 08:46:33;;;;;;;30.08;20.08;;;;;;;;;;6299304;28;20352;-72
2023/03/10 08:49:37;;;;;;;32.83;20.35;;;;;;;;;;6299977;28;20061;-73
2023/03/10 08:52:38;;;;;;;32.05;20.73;;;;;;;;;;6301570;28;20041;-72
2023/03/10 08:55:41;;;;;;;31.58;19.05;;;;;;;;;;6300941;28;20056;-72
2023/03/10 08:58:43;;;;;;;33.08;19.95;;;;;;;;;;6301803;28;20053;-70
2023/03/10 09:01:45;;;;;;;31.73;20.23;;;;;;;;;;6302747;28;20090;-73
2023/03/10 09:04:48;;;;;;;30.38;19.73;;;;;;;;;;6298409;28;20193;-74
2023/03/10 09:07:50;;;;;;;32.35;20.58;;;;;;;;;;6299856;28;20763;-71
2023/03/10 09:10:51;;;;;;;31.80;20.67;;;;;;;;;;6300731;28;20094;-69
2023/03/10 09:13:53;;;;;;;29.27;20.60;;;;;;;;;;6300105;28;20045;-73
2023/03/10 09:16:55;;;;;;;31.38;20.65;;;;;;;;;;6300922;28;20275;-70
2023/03/10 09:19:58;;;;;;;33.17;20.98;;;;;;;;;;6299440;28;20052;-72
2023/03/10 09:23:00;;;;;;;29.50;20.70;;;;;;;;;;6300728;28;20222;-66
2023/03/10 09:26:01;;;;;;;36.90;21.38;;;;;;;;;;6299302;28;20044;-72
2023/03/10 09:29:03;;;;;;;32.13;21.23;;;;;;;;;;6301177;28;20396;-73
2023/03/10 09:32:06;;;;;;;34.30;21.40;;;;;;;;;;6299862;28;21179;-72
2023/03/10 09:35:10;;;;;;;31.00;20.33;;;;;;;;;;6300114;28;20110;-73
2023/03/10 09:38:13;;;;;;;28.80;19.15;;;;;;;;;;6298861;28;20237;-65
2023/03/10 09:41:44;;;;;;;30.10;20.23;;;;;;;;;;6301748;28;20048;-72
2023/03/10 09:44:51;;;;;;;36.45;18.85;;;;;;;;;;6283747;28;20060;-69
2023/03/10 09:48:04;;;;;;;26.80;17.60;;;;;;;;;;6298617;28;20049;-68
2023/03/10 09:51:14;;;;;;;29.50;19.15;;;;;;;;;;6300680;28;20052;-72
2023/03/10 09:54:30;;;;;;;32.28;18.45;;;;;;;;;;6299953;28;20221;-73
2023/03/10 09:57:32;;;;;;;28.85;18.60;;;;;;;;;;6300305;28;20045;-72
2023/03/10 10:00:38;;;;;;;29.08;19.00;;;;;;;;;;6300616;28;20044;-72
2023/03/10 10:03:43;;;;;;;32.28;19.52;;;;;;;;;;6299979;28;20328;-73
2023/03/10 10:06:49;;;;;;;30.48;19.27;;;;;;;;;;6296852;28;20287;-72
2023/03/10 10:09:55;;;;;;;28.05;18.38;;;;;;;;;;6298237;28;20049;-68
2023/03/10 10:13:00;;;;;;;27.90;17.85;;;;;;;;;;6298477;28;20044;-71
2023/03/10 10:16:08;;;;;;;33.25;19.23;;;;;;;;;;6297634;28;20048;-73
2023/03/10 10:19:15;;;;;;;30.45;19.08;;;;;;;;;;6302639;28;20055;-73
2023/03/10 10:22:22;;;;;;;31.13;18.75;;;;;;;;;;6300125;28;20102;-73
2023/03/10 10:25:24;;;;;;;33.10;20.38;;;;;;;;;;6302417;28;20317;-72
2023/03/10 10:28:32;;;;;;;33.05;19.15;;;;;;;;;;6302613;28;20063;-72
2023/03/10 10:31:34;;;;;;;28.73;18.20;;;;;;;;;;6301743;28;20083;-70
2023/03/10 10:34:37;;;;;;;26.38;16.55;;;;;;;;;;6302130;28;20107;-73
2023/03/10 10:37:41;;;;;;;23.10;14.50;;;;;;;;;;6301113;28;20316;-73
2023/03/10 10:40:47;;;;;;;26.70;14.73;;;;;;;;;;6300858;28;20048;-73
2023/03/10 10:43:49;;;;;;;28.90;13.80;;;;;;;;;;6300045;28;20049;-72
2023/03/10 10:46:52;;;;;;;18.77;9.63;;;;;;;;;;6295401;28;20127;-67
2023/03/10 10:49:55;;;;;;;27.20;11.40;;;;;;;;;;6298771;28;20055;-73
2023/03/10 10:56:29;;;;;;;19.58;12.40;;;;;;;;;;6257390;27;20660;-73
2023/03/10 10:59:30;;;;;;;;;;;;;;;;;;6245875;28;20096;-71
2023/03/10 11:02:34;;;;;;;21.48;11.05;;;;;;;;;;6241779;28;20273;-73
2023/03/10 11:05:37;;;;;;;18.30;8.80;;;;;;;;;;6243582;28;20061;-71
2023/03/10 11:08:41;;;;;;;14.55;9.10;;;;;;;;;;6244754;28;20073;-69
2023/03/10 11:11:50;;;;;;;12.38;6.78;;;;;;;;;;6245645;28;20057;-71
2023/03/10 11:15:03;;;;;;;16.02;7.65;;;;;;;;;;6268219;28;20053;-72
2023/03/10 11:18:09;;;;;;;15.13;8.07;;;;;;;;;;6265762;28;20057;-66
2023/03/10 11:21:13;;;;;;;22.40;10.02;;;;;;;;;;6268857;28;20107;-70
2023/03/10 11:24:22;;;;;;;16.95;8.25;;;;;;;;;;6267784;28;20144;-72
2023/03/10 11:27:32;;;;;;;13.13;8.25;;;;;;;;;;6266225;28;20345;-72
2023/03/10 11:30:36;;;;;;;20.98;10.50;;;;;;;;;;6267991;28;20100;-71
2023/03/10 11:33:43;;;;;;;18.85;10.20;;;;;;;;;;6268345;28;20083;-68
2023/03/10 11:36:51;;;;;;;18.23;10.07;;;;;;;;;;6266683;28;20383;-71
2023/03/10 11:39:58;;;;;;;16.92;9.70;;;;;;;;;;6249303;28;20069;-71
2023/03/10 11:43:06;;;;;;;22.77;10.77;;;;;;;;;;6251238;28;20046;-71
2023/03/10 11:46:14;;;;;;;18.73;10.38;;;;;;;;;;6245101;28;20058;-71
2023/03/10 11:49:18;;;;;;;18.23;10.32;;;;;;;;;;6239708;28;20057;-72
2023/03/10 11:52:21;;;;;;;20.35;12.63;;;;;;;;;;6237273;28;20131;-72
2023/03/10 11:55:23;;;;;;;21.58;12.70;;;;;;;;;;6242255;28;20102;-71
2023/03/10 11:58:29;;;;;;;27.45;15.55;;;;;;;;;;6257490;28;20044;-73
2023/03/10 12:01:33;;;;;;;26.42;14.23;;;;;;;;;;6241326;28;20050;-69
2023/03/10 12:04:39;;;;;;;22.25;14.48;;;;;;;;;;6239657;28;20101;-70
2023/03/10 12:07:43;;;;;;;23.63;14.65;;;;;;;;;;6226212;28;20270;-71
2023/03/10 12:10:44;;;;;;;29.08;13.98;;;;;;;;;;6225295;28;20041;-71
2023/03/10 12:13:49;;;;;;;23.30;13.40;;;;;;;;;;6224404;28;20050;-72
2023/03/10 12:16:51;;;;;;;23.45;13.15;;;;;;;;;;6226137;28;20092;-72
2023/03/10 12:20:23;;;;;;;26.05;15.88;;;;;;;;;;6224750;28;20712;-69
2023/03/10 12:23:30;;;;;;;25.67;17.60;;;;;;;;;;6223846;28;20315;-72
2023/03/10 12:26:58;;;;;;;23.90;15.85;;;;;;;;;;6224577;28;20238;-72
2023/03/10 12:30:01;;;;;;;22.83;12.63;;;;;;;;;;6226527;28;20156;-70
2023/03/10 12:33:03;;;;;;;24.75;12.85;;;;;;;;;;6225970;28;20049;-71
2023/03/10 12:36:05;;;;;;;22.92;14.52;;;;;;;;;;6226737;28;20053;-72
2023/03/10 12:39:25;;;;;;;22.43;15.27;;;;;;;;;;6224613;28;20100;-72
2023/03/10 12:42:30;;;;;;;24.13;15.32;;;;;;;;;;6224771;28;20045;-73
2023/03/10 12:45:37;;;;;;;24.35;16.70;;;;;;;;;;6226169;28;20049;-71
2023/03/10 12:48:40;;;;;;;25.80;17.83;;;;;;;;;;6239746;28;20073;-73
2023/03/10 12:51:43;;;;;;;;;;;;;;;;;;6224657;28;20062;-70
2023/03/10 12:54:50;;;;;;;29.30;16.70;;;;;;;;;;6223265;28;19926;-72
2023/03/10 12:58:03;;;;;;;22.83;15.43;;;;;;;;;;6223189;28;20054;-70
2023/03/10 13:01:07;;;;;;;21.17;13.00;;;;;;;;;;6225961;28;20376;-72
2023/03/10 13:04:13;;;;;;;20.42;15.02;;;;;;;;;;6224346;28;20090;-71
2023/03/10 13:07:16;;;;;;;20.70;15.00;;;;;;;;;;6225287;28;20053;-70
2023/03/10 13:10:21;;;;;;;20.10;14.93;;;;;;;;;;6226171;28;20106;-71
2023/03/10 13:13:27;;;;;;;29.25;16.38;;;;;;;;;;6222461;28;20053;-70
2023/03/10 13:16:30;;;;;;;23.80;16.08;;;;;;;;;;6224787;28;20065;-71
2023/03/10 13:19:33;;;;;;;29.50;18.30;;;;;;;;;;6224002;28;20223;-66
2023/03/10 13:22:35;;;;;;;30.92;23.20;;;;;;;;;;6239962;28;20562;-70
2023/03/10 13:25:37;;;;;;;28.98;19.58;;;;;;;;;;6223956;28;20185;-70
2023/03/10 13:28:38;;;;;;;22.80;15.05;;;;;;;;;;6225261;28;20285;-71
2023/03/10 13:31:41;;;;;;;24.33;17.67;;;;;;;;;;6224573;28;20058;-70
2023/03/10 13:34:43;;;;;;;25.50;16.98;;;;;;;;;;6224330;28;20057;-71
2023/03/10 13:37:45;;;;;;;20.85;15.77;;;;;;;;;;6225539;28;20068;-71
2023/03/10 13:40:48;;;;;;;25.45;18.25;;;;;;;;;;6223982;28;20104;-71
2023/03/10 13:43:52;;;;;;;27.15;18.08;;;;;;;;;;6223677;28;20057;-71
2023/03/10 13:46:57;;;;;;;27.08;17.48;;;;;;;;;;6222832;28;20061;-65
2023/03/10 13:50:00;;;;;;;28.25;17.92;;;;;;;;;;6225631;28;20060;-65
2023/03/10 13:53:03;;;;;;;29.00;17.77;;;;;;;;;;6225110;28;20279;-71
2023/03/10 13:56:22;;;;;;;20.85;16.17;;;;;;;;;;6222990;28;20112;-72
2023/03/10 13:59:26;;;;;;;23.25;16.15;;;;;;;;;;6224092;28;20058;-72
2023/03/10 14:02:31;;;;;;;23.80;15.32;;;;;;;;;;6223926;28;20046;-70
2023/03/10 14:05:42;;;;;;;19.55;15.68;;;;;;;;;;6224057;28;20050;-72
2023/03/10 14:08:44;;;;;;;23.63;17.25;;;;;;;;;;6224565;28;20326;-70
2023/03/10 14:11:46;;;;;;;20.42;15.75;;;;;;;;;;6223027;28;20115;-69
2023/03/10 14:14:48;;;;;;;21.33;16.02;;;;;;;;;;6221393;28;20823;-70
2023/03/10 14:17:53;;;;;;;22.35;17.13;;;;;;;;;;6224473;28;20121;-74
2023/03/10 14:20:55;;;;;;;25.83;19.00;;;;;;;;;;6223406;28;20084;-73
2023/03/10 14:24:02;;;;;;;25.95;19.45;;;;;;;;;;6222295;28;20313;-73
2023/03/10 14:27:10;;;;;;;22.52;16.50;;;;;;;;;;6220483;28;20046;-72
2023/03/10 14:30:18;;;;;;;21.10;16.67;;;;;;;;;;6222186;28;20380;-74
2023/03/10 14:33:22;;;;;;;19.13;14.98;;;;;;;;;;6224063;28;20116;-72
2023/03/10 14:36:24;;;;;;;;;;;;;;;;;;6220168;28;20100;-72
2023/03/10 14:39:25;;;;;;;19.85;14.80;;;;;;;;;;6221937;28;19917;-73
2023/03/10 14:42:29;;;;;;;22.55;15.93;;;;;;;;;;6220502;28;20330;-71
2023/03/10 14:45:32;;;;;;;25.40;17.30;;;;;;;;;;6219500;28;20061;-71
2023/03/10 14:48:38;;;;;;;27.90;17.73;;;;;;;;;;6220855;28;20325;-72
2023/03/10 14:51:40;;;;;;;27.08;18.40;;;;;;;;;;6224010;28;20057;-73
2023/03/10 14:54:42;;;;;;;23.17;18.17;;;;;;;;;;6222104;28;20131;-73
2023/03/10 14:57:45;;;;;;;30.05;18.45;;;;;;;;;;6223896;28;20096;-70
2023/03/10 15:00:46;;;;;;;21.58;16.80;;;;;;;;;;6222696;28;20049;-75
2023/03/10 15:03:50;;;;;;;40.28;18.23;;;;;;;;;;6221936;28;20050;-74
2023/03/10 15:06:51;;;;;;;28.10;15.05;;;;;;;;;;6219628;28;20095;-71
2023/03/10 15:09:53;;;;;;;16.70;13.18;;;;;;;;;;6220371;28;20518;-74
2023/03/10 15:12:55;;;;;;;18.88;12.05;;;;;;;;;;6223903;28;20092;-72
2023/03/10 15:15:56;;;;;;;18.25;12.38;;;;;;;;;;6221541;28;20096;-72
2023/03/10 15:18:59;;;;;;;17.48;11.20;;;;;;;;;;6220337;28;20046;-73
2023/03/10 15:22:01;;;;;;;;;;;;;;;;;;6222697;28;20101;-72
2023/03/10 15:25:03;;;;;;;19.15;11.20;;;;;;;;;;6219868;28;19996;-71
2023/03/10 15:28:04;;;;;;;17.25;12.10;;;;;;;;;;6219361;28;20046;-73
2023/03/10 15:31:06;;;;;;;17.15;12.60;;;;;;;;;;6218488;28;20385;-73
2023/03/10 15:34:09;;;;;;;18.48;11.55;;;;;;;;;;6218658;28;20058;-72
2023/03/10 15:37:11;;;;;;;15.65;11.25;;;;;;;;;;6221729;28;20281;-76
2023/03/10 15:40:16;;;;;;;15.60;10.15;;;;;;;;;;6219236;28;20050;-69
2023/03/10 15:43:17;;;;;;;15.07;9.88;;;;;;;;;;6225360;28;20058;-78
2023/03/10 15:46:19;;;;;;;18.42;8.82;;;;;;;;;;6222981;28;20065;-69
2023/03/10 15:49:22;;;;;;;18.67;11.23;;;;;;;;;;6225765;28;20062;-73
2023/03/10 15:52:23;;;;;;;;;;;;;;;;;;6226963;28;20140;-79
2023/03/10 15:55:26;;;;;;;15.23;10.82;;;;;;;;;;6221530;28;20141;-83
2023/03/10 15:58:28;;;;;;;14.32;7.72;;;;;;;;;;6224353;28;20589;-84
2023/03/10 16:01:29;;;;;;;16.95;8.20;;;;;;;;;;6226383;28;20127;-80
2023/03/10 16:04:32;;;;;;;21.83;11.27;;;;;;;;;;6223941;28;20097;-79
2023/03/10 16:07:34;;;;;;;20.10;12.07;;;;;;;;;;6224546;28;20096;-74
2023/03/10 16:10:37;;;;;;;43.83;20.42;;;;;;;;;;6223888;28;20054;-75
2023/03/10 16:13:38;;;;;;;40.95;27.10;;;;;;;;;;6224444;28;20233;-74
2023/03/10 16:16:40;;;;;;;15.68;8.75;;;;;;;;;;6220869;28;20388;-77
2023/03/10 16:19:43;;;;;;;17.73;6.63;;;;;;;;;;6222070;28;20061;-76
2023/03/10 16:22:45;;;;;;;11.00;7.07;;;;;;;;;;6226339;28;20050;-74
2023/03/10 16:26:05;;;;;;;14.20;6.57;;;;;;;;;;6225831;28;20273;-77
2023/03/10 16:29:07;;;;;;;9.57;5.63;;;;;;;;;;6224008;28;20084;-73
2023/03/10 16:32:10;;;;;;;21.88;12.77;;;;;;;;;;6222467;28;20104;-75
2023/03/10 16:35:13;;;;;;;23.80;11.35;;;;;;;;;;6221736;28;20173;-77
2023/03/10 16:38:15;;;;;;;83.65;51.15;;;;;;;;;;6220790;28;20076;-72
2023/03/10 16:41:17;;;;;;;15.57;7.80;;;;;;;;;;6223539;28;20377;-73
2023/03/10 16:44:18;;;;;;;24.60;8.25;;;;;;;;;;6222438;28;20045;-74
2023/03/10 16:47:20;;;;;;;13.23;6.03;;;;;;;;;;6223686;28;21003;-74
2023/03/10 16:50:23;;;;;;;20.83;6.30;;;;;;;;;;6223207;28;20096;-73
2023/03/10 16:53:25;;;;;;;14.10;8.10;;;;;;;;;;6224902;28;20149;-74
2023/03/10 16:56:30;;;;;;;19.52;9.32;;;;;;;;;;6222271;28;20073;-74
2023/03/10 16:59:32;;;;;;;17.67;6.78;;;;;;;;;;6225651;28;20112;-76
2023/03/10 17:02:34;;;;;;;13.00;6.90;;;;;;;;;;6222643;28;20108;-73
2023/03/10 17:05:38;;;;;;;14.38;7.18;;;;;;;;;;6221419;28;20334;-67
2023/03/10 17:08:39;;;;;;;;;;;;;;;;;;6224064;28;20080;-76
2023/03/10 17:11:45;;;;;;;12.70;6.07;;;;;;;;;;6221915;28;20256;-74
2023/03/10 17:14:49;;;;;;;17.13;6.13;;;;;;;;;;6225484;28;20049;-68
2023/03/10 17:17:51;;;;;;;18.20;6.28;;;;;;;;;;6222423;28;20053;-72
2023/03/10 17:20:54;;;;;;;17.92;7.18;;;;;;;;;;6220698;28;20057;-74
2023/03/10 17:23:55;;;;;;;19.08;6.35;;;;;;;;;;6222144;28;20096;-72
2023/03/10 17:26:57;;;;;;;15.25;6.93;;;;;;;;;;6221876;28;20053;-73
2023/03/10 17:29:59;;;;;;;24.73;12.88;;;;;;;;;;6219252;28;20129;-72
2023/03/10 17:33:00;;;;;;;13.55;8.85;;;;;;;;;;6223442;28;20128;-72
2023/03/10 17:36:08;;;;;;;16.33;6.95;;;;;;;;;;6224174;28;20228;-70
2023/03/10 17:39:16;;;;;;;17.75;8.02;;;;;;;;;;6223606;28;20061;-73
2023/03/10 17:42:18;;;;;;;18.70;7.50;;;;;;;;;;6222171;28;20060;-73
2023/03/10 17:45:19;;;;;;;15.18;7.18;;;;;;;;;;6220208;28;20046;-72
2023/03/10 17:48:24;;;;;;;18.05;10.00;;;;;;;;;;6224406;28;20496;-72
2023/03/10 17:51:29;;;;;;;13.75;6.57;;;;;;;;;;6219841;28;20050;-70
2023/03/10 17:54:31;;;;;;;13.40;6.65;;;;;;;;;;6220808;28;20062;-72